createdAt,value
2018-02-24T00:01:53.152Z,51.39
2018-02-24T00:04:20.832Z,51.32
2018-02-24T00:06:48.546Z,52.12
2018-02-24T00:09:16.237Z,52.52
2018-02-24T00:11:43.951Z,52.81
2018-02-24T00:14:11.639Z,52.53
2018-02-24T00:16:39.325Z,53.37
2018-02-24T00:19:07.034Z,52.34
2018-02-24T00:21:34.827Z,51.54
2018-02-24T00:24:02.539Z,51.55
2018-02-24T00:26:30.834Z,52.55
2018-02-24T00:28:58.559Z,54.04
2018-02-24T00:31:26.250Z,52.81
2018-02-24T00:33:54.267Z,53.76
2018-02-24T00:36:21.941Z,53.93
2018-02-24T00:38:49.615Z,53.63
2018-02-24T00:41:17.322Z,53.14
2018-02-24T00:43:45.017Z,53.76
2018-02-24T00:46:12.724Z,52.81
2018-02-24T00:48:40.427Z,54.43
2018-02-24T00:51:08.311Z,55.43
2018-02-24T00:53:36.007Z,53.63
2018-02-24T00:56:03.686Z,53.09
2018-02-24T00:58:31.402Z,53.62
2018-02-24T01:00:59.090Z,53.15
2018-02-24T01:03:26.793Z,53.97
2018-02-24T01:05:54.495Z,54.07
2018-02-24T01:08:22.572Z,54.13
2018-02-24T01:10:50.265Z,53.11
2018-02-24T01:13:17.953Z,54.02
2018-02-24T01:15:45.662Z,54.23
2018-02-24T01:18:13.352Z,54.90
2018-02-24T01:20:41.054Z,54.39
2018-02-24T01:23:08.746Z,55.15
2018-02-24T01:25:36.716Z,54.71
2018-02-24T01:28:04.436Z,54.64
2018-02-24T01:30:32.110Z,55.34
2018-02-24T01:32:59.819Z,55.91
2018-02-24T01:35:27.521Z,56.02
2018-02-24T01:37:55.228Z,54.45
2018-02-24T01:40:22.912Z,54.39
2018-02-24T01:42:50.652Z,55.04
2018-02-24T01:45:18.331Z,54.77
2018-02-24T01:47:46.009Z,55.37
2018-02-24T01:50:13.712Z,55.78
2018-02-24T01:52:41.397Z,55.48
2018-02-24T01:55:09.089Z,55.99
2018-02-24T01:57:36.772Z,54.31
2018-02-24T02:00:04.694Z,55.13
2018-02-24T02:02:32.360Z,55.21
2018-02-24T02:05:00.036Z,55.15
2018-02-24T02:07:27.739Z,55.96
2018-02-24T02:09:55.446Z,55.58
2018-02-24T02:12:23.155Z,55.88
2018-02-24T02:14:50.838Z,56.37
2018-02-24T02:17:18.551Z,56.02
2018-02-24T02:19:46.229Z,54.96
2018-02-24T02:22:13.898Z,54.18
2018-02-24T02:24:41.594Z,54.86
2018-02-24T02:27:09.276Z,53.96
2018-02-24T02:29:36.992Z,55.95
2018-02-24T02:32:04.666Z,55.46
2018-02-24T02:34:32.365Z,55.54
2018-02-24T02:37:00.064Z,55.46
2018-02-24T02:39:27.751Z,56.04
2018-02-24T02:41:55.475Z,56.52
2018-02-24T02:44:23.145Z,55.71
2018-02-24T02:46:50.816Z,54.51
2018-02-24T02:49:18.523Z,55.18
2018-02-24T02:51:46.218Z,55.43
2018-02-24T02:54:13.922Z,54.65
2018-02-24T02:56:41.596Z,55.02
2018-02-24T02:59:09.349Z,55.91
2018-02-24T03:01:37.022Z,55.13
2018-02-24T03:04:04.700Z,55.50
2018-02-24T03:06:32.399Z,55.92
2018-02-24T03:09:00.094Z,54.90
2018-02-24T03:11:27.793Z,54.28
2018-02-24T03:13:55.467Z,55.34
2018-02-24T03:16:23.452Z,55.52
2018-02-24T03:18:51.136Z,55.43
2018-02-24T03:21:18.831Z,54.86
2018-02-24T03:23:46.531Z,54.62
2018-02-24T03:26:14.207Z,55.57
2018-02-24T03:28:41.911Z,54.79
2018-02-24T03:31:09.596Z,53.65
2018-02-24T03:33:37.593Z,53.36
2018-02-24T03:36:05.287Z,53.11
2018-02-24T03:38:33.020Z,55.64
2018-02-24T03:41:00.725Z,53.83
2018-02-24T03:43:28.466Z,54.52
2018-02-24T03:48:55.689Z,55.03
2018-02-24T03:51:23.482Z,53.24
2018-02-24T03:53:51.168Z,53.27
2018-02-24T03:56:18.870Z,52.45
2018-02-24T03:58:46.612Z,53.49
2018-02-24T04:01:14.287Z,53.09
2018-02-24T04:03:42.017Z,53.71
2018-02-24T04:06:09.721Z,53.80
2018-02-24T04:08:37.407Z,56.34
2018-02-24T04:11:05.116Z,55.00
2018-02-24T04:13:32.799Z,54.48
2018-02-24T04:16:00.502Z,54.06
2018-02-24T04:18:28.172Z,53.94
2018-02-24T04:20:55.906Z,53.80
2018-02-24T04:23:23.601Z,53.14
2018-02-24T04:25:51.285Z,56.26
2018-02-24T04:28:18.983Z,53.54
2018-02-24T04:30:46.689Z,54.63
2018-02-24T04:33:14.575Z,53.56
2018-02-24T04:35:42.272Z,53.57
2018-02-24T04:38:10.202Z,55.08
2018-02-24T04:40:37.887Z,54.76
2018-02-24T04:43:05.611Z,55.21
2018-02-24T04:45:33.322Z,57.21
2018-02-24T04:48:01.004Z,54.61
2018-02-24T04:50:28.722Z,54.27
2018-02-24T04:52:56.400Z,55.27
2018-02-24T04:55:24.089Z,55.33
2018-02-24T04:57:51.800Z,55.67
2018-02-24T05:00:19.479Z,54.45
2018-02-24T05:02:47.184Z,54.44
2018-02-24T05:05:14.858Z,54.92
2018-02-24T05:07:42.698Z,53.91
2018-02-24T05:10:10.371Z,53.94
2018-02-24T05:12:38.044Z,54.28
2018-02-24T05:15:05.921Z,54.62
2018-02-24T05:17:33.599Z,54.21
2018-02-24T05:20:01.296Z,53.61
2018-02-24T05:22:28.968Z,53.63
2018-02-24T05:24:56.809Z,54.23
2018-02-24T05:27:24.491Z,54.01
2018-02-24T05:29:52.171Z,53.65
2018-02-24T05:32:19.875Z,53.13
2018-02-24T05:34:47.552Z,53.92
2018-02-24T05:37:15.255Z,53.79
2018-02-24T05:39:42.935Z,52.65
2018-02-24T05:42:10.650Z,53.12
2018-02-24T05:44:38.361Z,52.97
2018-02-24T05:47:06.042Z,56.91
2018-02-24T05:49:33.767Z,53.06
2018-02-24T05:52:01.456Z,53.09
2018-02-24T05:54:29.133Z,52.14
2018-02-24T05:56:57.111Z,52.82
2018-02-24T05:59:24.784Z,52.69
2018-02-24T06:01:52.493Z,52.96
2018-02-24T06:04:20.172Z,53.07
2018-02-24T06:06:47.900Z,52.43
2018-02-24T06:09:15.573Z,52.61
2018-02-24T06:11:43.256Z,52.98
2018-02-24T06:14:10.977Z,52.49
2018-02-24T06:16:38.665Z,52.87
2018-02-24T06:19:06.355Z,52.77
2018-02-24T06:21:34.045Z,52.90
2018-02-24T06:24:01.837Z,53.93
2018-02-24T06:26:29.528Z,53.80
2018-02-24T06:28:57.206Z,54.52
2018-02-24T06:31:24.909Z,54.12
2018-02-24T06:33:53.224Z,54.26
2018-02-24T06:36:20.944Z,54.31
2018-02-24T06:38:48.632Z,53.90
2018-02-24T06:41:16.368Z,53.47
2018-02-24T06:43:44.056Z,53.35
2018-02-24T06:46:11.729Z,52.71
2018-02-24T06:48:39.453Z,53.14
2018-02-24T06:51:07.162Z,53.29
2018-02-24T06:53:34.865Z,54.89
2018-02-24T06:56:02.556Z,55.42
2018-02-24T06:58:30.282Z,54.71
2018-02-24T07:00:57.961Z,55.34
2018-02-24T07:03:25.642Z,54.36
2018-02-24T07:05:53.343Z,55.26
2018-02-24T07:08:21.016Z,55.31
2018-02-24T07:10:48.719Z,55.23
2018-02-24T07:13:16.404Z,53.33
2018-02-24T07:15:44.113Z,54.48
2018-02-24T07:18:11.795Z,53.46
2018-02-24T07:20:39.800Z,58.25
2018-02-24T07:23:07.488Z,54.77
2018-02-24T07:25:35.163Z,53.53
2018-02-24T07:28:03.256Z,53.08
2018-02-24T07:30:30.960Z,53.81
2018-02-24T07:32:58.657Z,53.72
2018-02-24T07:35:26.327Z,53.28
2018-02-24T07:37:54.269Z,51.85
2018-02-24T07:40:21.950Z,52.85
2018-02-24T07:42:49.686Z,52.75
2018-02-24T07:45:17.385Z,52.29
2018-02-24T07:47:45.066Z,52.31
2018-02-24T07:50:12.760Z,52.98
2018-02-24T07:52:40.445Z,54.09
2018-02-24T07:55:08.402Z,51.11
2018-02-24T07:57:36.074Z,52.28
2018-02-24T08:00:03.769Z,52.94
2018-02-24T08:02:31.471Z,51.19
2018-02-24T08:04:59.151Z,50.99
2018-02-24T08:07:27.542Z,49.99
2018-02-24T08:09:55.216Z,51.40
2018-02-24T08:12:23.031Z,51.63
2018-02-24T08:14:50.714Z,48.62
2018-02-24T08:17:18.433Z,48.39
2018-02-24T08:19:46.129Z,47.73
2018-02-24T08:22:13.805Z,47.21
2018-02-24T08:24:41.513Z,46.58
2018-02-24T08:27:09.187Z,47.21
2018-02-24T08:29:37.102Z,46.50
2018-02-24T08:32:04.794Z,45.78
2018-02-24T08:34:32.496Z,48.67
2018-02-24T08:37:00.200Z,46.78
2018-02-24T08:39:27.885Z,46.81
2018-02-24T08:41:55.584Z,45.99
2018-02-24T08:44:23.262Z,45.50
2018-02-24T08:46:51.355Z,44.64
2018-02-24T08:49:19.041Z,44.21
2018-02-24T08:51:46.716Z,44.77
2018-02-24T08:54:14.407Z,44.21
2018-02-24T08:56:42.093Z,44.11
2018-02-24T08:59:10.013Z,42.46
2018-02-24T09:01:37.680Z,43.01
2018-02-24T09:04:05.707Z,41.85
2018-02-24T09:06:33.390Z,41.49
2018-02-24T09:09:01.069Z,41.86
2018-02-24T09:11:28.762Z,41.66
2018-02-24T09:13:56.439Z,41.26
2018-02-24T09:16:24.121Z,43.45
2018-02-24T09:18:51.809Z,40.90
2018-02-24T09:21:19.531Z,41.05
2018-02-24T09:23:47.195Z,41.28
2018-02-24T09:26:14.936Z,39.29
2018-02-24T09:28:42.709Z,40.45
2018-02-24T09:31:10.380Z,41.34
2018-02-24T09:33:38.066Z,39.74
2018-02-24T09:36:05.742Z,38.86
2018-02-24T09:38:33.451Z,38.94
2018-02-24T09:41:01.125Z,41.62
2018-02-24T09:43:28.855Z,38.03
2018-02-24T09:45:56.559Z,37.76
2018-02-24T09:48:24.236Z,38.33
2018-02-24T09:50:51.921Z,37.74
2018-02-24T09:53:19.597Z,38.42
2018-02-24T09:55:47.292Z,36.70
2018-02-24T09:58:14.957Z,38.72
2018-02-24T10:00:42.871Z,36.56
2018-02-24T10:03:10.690Z,37.66
2018-02-24T10:05:38.360Z,37.32
2018-02-24T10:08:06.044Z,35.80
2018-02-24T10:10:33.716Z,37.51
2018-02-24T10:13:01.409Z,42.15
2018-02-24T10:15:29.079Z,35.26
2018-02-24T10:17:57.120Z,37.47
2018-02-24T10:20:24.803Z,35.19
2018-02-24T10:22:52.473Z,36.96
2018-02-24T10:25:20.179Z,41.68
2018-02-24T10:27:47.847Z,35.65
2018-02-24T10:30:15.542Z,35.34
2018-02-24T10:32:43.203Z,35.92
2018-02-24T10:35:10.950Z,35.46
2018-02-24T10:37:38.761Z,35.77
2018-02-24T10:40:06.436Z,35.63
2018-02-24T10:42:34.129Z,37.34
2018-02-24T10:45:01.812Z,34.48
2018-02-24T10:47:29.517Z,34.75
2018-02-24T10:49:57.176Z,34.82
2018-02-24T10:52:25.098Z,34.78
2018-02-24T10:54:52.800Z,34.49
2018-02-24T10:57:20.686Z,39.35
2018-02-24T10:59:48.386Z,36.04
2018-02-24T11:02:16.074Z,33.85
2018-02-24T11:04:43.769Z,33.86
2018-02-24T11:07:11.440Z,34.57
2018-02-24T11:09:39.358Z,34.24
2018-02-24T11:12:07.025Z,34.61
2018-02-24T11:14:34.708Z,34.89
2018-02-24T11:17:02.404Z,34.92
2018-02-24T11:19:30.088Z,35.51
2018-02-24T11:21:57.991Z,35.34
2018-02-24T11:24:25.657Z,38.14
2018-02-24T11:26:54.032Z,36.75
2018-02-24T11:29:22.054Z,36.51
2018-02-24T11:31:49.827Z,36.08
2018-02-24T11:34:17.508Z,37.36
2018-02-24T11:36:45.185Z,37.21
2018-02-24T11:39:13.201Z,36.66
2018-02-24T11:41:40.867Z,37.09
2018-02-24T11:44:08.572Z,37.30
2018-02-24T11:46:36.328Z,37.50
2018-02-24T11:49:03.970Z,37.40
2018-02-24T11:51:31.664Z,37.41
2018-02-24T11:53:59.333Z,37.57
2018-02-24T11:56:27.489Z,38.05
2018-02-24T11:58:55.216Z,37.17
2018-02-24T12:01:22.889Z,38.45
2018-02-24T12:03:50.578Z,38.00
2018-02-24T12:06:18.252Z,41.28
2018-02-24T12:08:45.941Z,38.25
2018-02-24T12:11:13.616Z,38.06
2018-02-24T12:13:41.334Z,39.04
2018-02-24T12:16:09.028Z,38.66
2018-02-24T12:18:36.706Z,41.85
2018-02-24T12:21:04.410Z,39.20
2018-02-24T12:23:32.181Z,39.32
2018-02-24T12:25:59.877Z,39.61
2018-02-24T12:28:27.544Z,38.18
2018-02-24T12:30:55.524Z,37.20
2018-02-24T12:33:23.248Z,35.94
2018-02-24T12:35:50.913Z,36.33
2018-02-24T12:38:18.643Z,35.57
2018-02-24T12:40:46.235Z,37.81
2018-02-24T12:43:13.924Z,35.83
2018-02-24T12:45:41.516Z,35.92
2018-02-24T12:48:09.361Z,36.37
2018-02-24T12:50:36.954Z,34.77
2018-02-24T12:53:04.557Z,33.22
2018-02-24T12:55:32.172Z,32.36
2018-02-24T12:57:59.770Z,31.53
2018-02-24T13:00:27.411Z,31.94
2018-02-24T13:02:55.007Z,31.05
2018-02-24T13:05:22.628Z,31.62
2018-02-24T13:07:50.227Z,30.50
2018-02-24T13:10:17.878Z,31.20
2018-02-24T13:12:45.516Z,32.27
2018-02-24T13:15:13.123Z,30.39
2018-02-24T13:17:40.751Z,29.48
2018-02-24T13:20:08.361Z,29.93
2018-02-24T13:22:36.001Z,29.84
2018-02-24T13:25:03.587Z,28.50
2018-02-24T13:27:31.209Z,29.76
2018-02-24T13:29:58.848Z,28.38
2018-02-24T13:32:26.439Z,29.17
2018-02-24T13:34:54.058Z,28.00
2018-02-24T13:37:21.657Z,28.72
2018-02-24T13:39:49.292Z,29.63
2018-02-24T13:42:16.883Z,28.69
2018-02-24T13:44:44.483Z,29.26
2018-02-24T13:47:12.117Z,29.91
2018-02-24T13:49:39.722Z,31.44
2018-02-24T13:52:07.344Z,29.01
2018-02-24T13:54:34.942Z,30.58
2018-02-24T13:57:02.734Z,31.57
2018-02-24T13:59:30.362Z,29.72
2018-02-24T14:01:57.949Z,31.78
2018-02-24T14:04:25.575Z,31.85
2018-02-24T14:06:53.161Z,33.59
2018-02-24T14:09:20.772Z,34.22
2018-02-24T14:11:48.365Z,33.42
2018-02-24T14:14:16.004Z,32.02
2018-02-24T14:16:43.587Z,31.55
2018-02-24T14:19:11.212Z,31.76
2018-02-24T14:21:38.823Z,31.01
2018-02-24T14:24:06.418Z,30.60
2018-02-24T14:26:34.029Z,31.57
2018-02-24T14:29:01.616Z,32.64
2018-02-24T14:31:29.270Z,32.05
2018-02-24T14:33:56.857Z,32.28
2018-02-24T14:36:24.455Z,33.45
2018-02-24T14:38:52.073Z,31.91
2018-02-24T14:41:19.672Z,33.09
2018-02-24T14:43:47.309Z,33.24
2018-02-24T14:46:14.900Z,33.59
2018-02-24T14:48:42.544Z,32.65
2018-02-24T14:51:10.158Z,32.21
2018-02-24T14:53:37.808Z,32.58
2018-02-24T14:56:05.426Z,33.14
2018-02-24T14:58:33.125Z,31.93
2018-02-24T15:01:00.845Z,32.53
2018-02-24T15:03:28.515Z,32.83
2018-02-24T15:05:56.176Z,33.13
2018-02-24T15:08:23.861Z,32.36
2018-02-24T15:10:51.544Z,33.63
2018-02-24T15:13:19.217Z,36.10
2018-02-24T15:15:46.879Z,34.92
2018-02-24T15:18:14.675Z,33.22
2018-02-24T15:20:42.364Z,31.73
2018-02-24T15:23:10.047Z,32.47
2018-02-24T15:25:37.822Z,32.47
2018-02-24T15:28:05.512Z,32.11
2018-02-24T15:30:33.216Z,31.86
2018-02-24T15:33:00.920Z,34.20
2018-02-24T15:35:28.647Z,31.87
2018-02-24T15:37:56.330Z,31.67
2018-02-24T15:40:24.012Z,31.98
2018-02-24T15:42:51.706Z,33.41
2018-02-24T15:45:19.409Z,31.56
2018-02-24T15:47:47.104Z,31.45
2018-02-24T15:50:14.777Z,32.66
2018-02-24T15:52:42.490Z,32.77
2018-02-24T15:55:10.163Z,31.96
2018-02-24T15:57:37.834Z,31.03
2018-02-24T16:00:05.520Z,30.13
2018-02-24T16:02:33.198Z,30.70
2018-02-24T16:05:00.883Z,30.84
2018-02-24T16:07:28.560Z,30.77
2018-02-24T16:09:56.651Z,31.36
2018-02-24T16:12:24.396Z,31.17
2018-02-24T16:14:52.067Z,31.01
2018-02-24T16:17:19.770Z,31.01
2018-02-24T16:19:47.438Z,30.87
2018-02-24T16:22:15.169Z,31.12
2018-02-24T16:24:43.212Z,31.08
2018-02-24T16:27:10.887Z,31.69
2018-02-24T16:29:38.580Z,31.31
2018-02-24T16:32:06.254Z,31.25
2018-02-24T16:34:33.942Z,31.89
2018-02-24T16:37:01.617Z,31.73
2018-02-24T16:39:29.471Z,32.07
2018-02-24T16:41:57.143Z,32.40
2018-02-24T16:44:24.804Z,32.38
2018-02-24T16:46:52.493Z,32.13
2018-02-24T16:49:20.156Z,33.54
2018-02-24T16:51:47.871Z,32.26
2018-02-24T16:54:15.541Z,32.41
2018-02-24T16:56:43.427Z,31.93
2018-02-24T16:59:11.113Z,32.75
2018-02-24T17:01:38.781Z,33.47
2018-02-24T17:04:06.512Z,34.35
2018-02-24T17:06:34.187Z,32.61
2018-02-24T17:09:01.892Z,34.22
2018-02-24T17:11:29.560Z,33.78
2018-02-24T17:13:57.465Z,34.48
2018-02-24T17:16:25.146Z,33.38
2018-02-24T17:18:52.972Z,33.76
2018-02-24T17:21:20.668Z,33.71
2018-02-24T17:23:48.328Z,34.42
2018-02-24T17:26:16.018Z,36.33
2018-02-24T17:28:43.689Z,35.48
2018-02-24T17:31:11.414Z,36.17
2018-02-24T17:33:39.101Z,34.99
2018-02-24T17:36:06.768Z,36.59
2018-02-24T17:38:34.453Z,35.77
2018-02-24T17:41:02.133Z,36.15
2018-02-24T17:43:29.830Z,34.28
2018-02-24T17:45:57.498Z,35.02
2018-02-24T17:48:25.204Z,35.28
2018-02-24T17:50:52.877Z,34.91
2018-02-24T17:53:20.768Z,36.33
2018-02-24T17:55:48.428Z,38.52
2018-02-24T17:58:16.084Z,36.34
2018-02-24T18:00:43.779Z,36.34
2018-02-24T18:03:11.453Z,38.02
2018-02-24T18:05:39.154Z,37.44
2018-02-24T18:08:06.825Z,39.33
2018-02-24T18:10:34.530Z,37.51
2018-02-24T18:13:02.209Z,36.26
2018-02-24T18:15:29.907Z,38.24
2018-02-24T18:17:57.584Z,36.34
2018-02-24T18:20:25.264Z,36.52
2018-02-24T18:22:52.975Z,38.95
2018-02-24T18:25:20.634Z,37.81
2018-02-24T18:27:48.337Z,38.00
2018-02-24T18:30:16.284Z,39.55
2018-02-24T18:32:43.982Z,38.24
2018-02-24T18:35:11.648Z,39.39
2018-02-24T18:37:39.344Z,39.36
2018-02-24T18:40:07.008Z,38.86
2018-02-24T18:42:34.668Z,38.69
2018-02-24T18:45:02.360Z,39.50
2018-02-24T18:47:30.026Z,42.59
2018-02-24T18:49:57.719Z,39.93
2018-02-24T18:52:25.387Z,41.71
2018-02-24T18:54:53.122Z,41.64
2018-02-24T18:57:20.797Z,39.81
2018-02-24T18:59:48.510Z,40.05
2018-02-24T19:02:16.188Z,40.06
2018-02-24T19:04:43.858Z,40.22
2018-02-24T19:07:11.552Z,41.44
2018-02-24T19:09:39.228Z,41.63
2018-02-24T19:12:06.924Z,40.89
2018-02-24T19:14:34.603Z,40.99
2018-02-24T19:17:02.534Z,42.09
2018-02-24T19:19:30.217Z,41.43
2018-02-24T19:21:57.946Z,43.95
2018-02-24T19:24:25.610Z,41.81
2018-02-24T19:26:53.296Z,41.95
2018-02-24T19:29:21.001Z,42.62
2018-02-24T19:31:48.748Z,41.37
2018-02-24T19:34:16.772Z,41.69
2018-02-24T19:36:44.454Z,41.33
2018-02-24T19:39:12.120Z,41.99
2018-02-24T19:41:39.821Z,42.35
2018-02-24T19:44:07.495Z,42.96
2018-02-24T19:46:35.197Z,41.57
2018-02-24T19:49:02.860Z,42.31
2018-02-24T19:51:30.716Z,42.42
2018-02-24T19:53:59.045Z,43.48
2018-02-24T19:56:26.714Z,43.09
2018-02-24T19:58:54.408Z,42.65
2018-02-24T20:01:22.108Z,42.76
2018-02-24T20:03:49.801Z,41.56
2018-02-24T20:06:17.484Z,41.23
2018-02-24T20:08:45.222Z,43.31
2018-02-24T20:11:12.895Z,42.14
2018-02-24T20:13:40.560Z,41.59
2018-02-24T20:16:08.257Z,40.54
2018-02-24T20:18:35.932Z,41.67
2018-02-24T20:21:03.671Z,40.84
2018-02-24T20:23:31.315Z,40.83
2018-02-24T20:25:59.114Z,41.12
2018-02-24T20:28:26.788Z,40.81
2018-02-24T20:30:54.468Z,43.93
2018-02-24T20:33:22.160Z,42.08
2018-02-24T20:35:49.851Z,40.96
2018-02-24T20:38:17.554Z,42.13
2018-02-24T20:40:45.223Z,44.05
2018-02-24T20:43:12.920Z,41.61
2018-02-24T20:45:40.610Z,42.10
2018-02-24T20:48:08.300Z,41.86
2018-02-24T20:50:35.992Z,41.75
2018-02-24T20:53:03.681Z,41.51
2018-02-24T20:55:31.364Z,41.69
2018-02-24T20:57:59.072Z,42.42
2018-02-24T21:00:26.739Z,40.75
2018-02-24T21:02:54.765Z,41.49
2018-02-24T21:05:22.443Z,42.74
2018-02-24T21:07:50.112Z,45.04
2018-02-24T21:10:17.792Z,42.72
2018-02-24T21:12:45.465Z,43.54
2018-02-24T21:15:13.195Z,41.82
2018-02-24T21:17:41.101Z,43.59
2018-02-24T21:20:09.124Z,42.87
2018-02-24T21:22:36.804Z,42.13
2018-02-24T21:25:04.469Z,43.39
2018-02-24T21:27:32.184Z,43.68
2018-02-24T21:29:59.859Z,42.96
2018-02-24T21:32:27.560Z,44.61
2018-02-24T21:34:55.309Z,44.01
2018-02-24T21:37:23.157Z,43.68
2018-02-24T21:39:50.838Z,47.83
2018-02-24T21:42:18.508Z,44.97
2018-02-24T21:44:46.192Z,42.25
2018-02-24T21:47:13.920Z,42.37
2018-02-24T21:49:41.806Z,42.24
2018-02-24T21:52:09.498Z,46.30
2018-02-24T21:54:37.632Z,46.82
2018-02-24T21:57:05.304Z,44.18
2018-02-24T21:59:32.999Z,44.20
2018-02-24T22:02:00.693Z,45.22
2018-02-24T22:04:28.366Z,44.62
2018-02-24T22:06:56.149Z,45.72
2018-02-24T22:09:23.864Z,44.76
2018-02-24T22:11:51.964Z,44.33
2018-02-24T22:14:19.640Z,45.53
2018-02-24T22:16:47.318Z,46.83
2018-02-24T22:19:15.030Z,49.71
2018-02-24T22:21:42.711Z,46.11
2018-02-24T22:24:10.545Z,45.95
2018-02-24T22:26:38.317Z,45.16
2018-02-24T22:29:06.027Z,44.50
2018-02-24T22:31:33.730Z,46.29
2018-02-24T22:34:01.401Z,46.15
2018-02-24T22:36:29.088Z,45.91
2018-02-24T22:38:56.755Z,46.51
2018-02-24T22:41:24.637Z,46.71
2018-02-24T22:43:52.305Z,47.13
2018-02-24T22:46:19.980Z,45.20
2018-02-24T22:48:53.118Z,46.60
2018-02-24T22:51:21.002Z,46.42
2018-02-24T22:53:48.691Z,49.00
2018-02-24T22:56:16.366Z,45.46
2018-02-24T22:58:44.208Z,46.58
2018-02-24T23:01:11.889Z,45.97
2018-02-24T23:03:39.862Z,45.53
2018-02-24T23:06:07.538Z,44.97
2018-02-24T23:08:35.344Z,45.24
2018-02-24T23:11:03.048Z,45.71
2018-02-24T23:13:30.728Z,45.98
2018-02-24T23:15:58.435Z,46.52
2018-02-24T23:18:26.100Z,45.85
2018-02-24T23:20:53.984Z,46.96
2018-02-24T23:23:21.656Z,46.94
2018-02-24T23:25:49.327Z,49.44
2018-02-24T23:28:17.037Z,48.46
2018-02-24T23:30:44.897Z,48.48
2018-02-24T23:33:12.592Z,46.56
2018-02-24T23:35:40.278Z,48.30
2018-02-24T23:38:08.147Z,48.06
2018-02-24T23:40:35.855Z,47.79
2018-02-24T23:43:03.576Z,46.83
2018-02-24T23:45:31.277Z,48.50
2018-02-24T23:47:58.986Z,48.86
2018-02-24T23:50:26.689Z,49.12
2018-02-24T23:52:54.549Z,51.34
2018-02-24T23:55:22.236Z,49.71
2018-02-24T23:57:49.936Z,50.85
